sensor_id;sensor_type;location;lat;lon;timestamp;P1;durP1;ratioP1;P2;durP2;ratioP2
49978;SDS011;35869;50.990;6.962;2023-12-04T00:04:41;16.27;;;11.70;;
49978;SDS011;35869;50.990;6.962;2023-12-04T00:09:41;15.70;;;11.93;;
49978;SDS011;35869;50.990;6.962;2023-12-04T00:14:41;18.30;;;11.27;;
49978;SDS011;35869;50.990;6.962;2023-12-04T00:19:43;15.30;;;10.00;;
49978;SDS011;35869;50.990;6.962;2023-12-04T00:24:46;15.40;;;11.90;;
49978;SDS011;35869;50.990;6.962;2023-12-04T00:29:52;15.63;;;11.85;;
49978;SDS011;35869;50.990;6.962;2023-12-04T00:34:53;16.77;;;12.32;;
49978;SDS011;35869;50.990;6.962;2023-12-04T00:39:53;20.42;;;13.27;;
49978;SDS011;35869;50.990;6.962;2023-12-04T00:44:57;15.63;;;11.60;;
49978;SDS011;35869;50.990;6.962;2023-12-04T00:49:58;15.25;;;10.45;;
49978;SDS011;35869;50.990;6.962;2023-12-04T00:54:58;18.45;;;11.82;;
49978;SDS011;35869;50.990;6.962;2023-12-04T00:59:58;15.90;;;11.23;;
49978;SDS011;35869;50.990;6.962;2023-12-04T01:04:58;15.60;;;11.30;;
49978;SDS011;35869;50.990;6.962;2023-12-04T01:09:59;15.77;;;11.57;;
49978;SDS011;35869;50.990;6.962;2023-12-04T01:14:59;15.93;;;11.20;;
49978;SDS011;35869;50.990;6.962;2023-12-04T01:19:59;14.20;;;11.18;;
49978;SDS011;35869;50.990;6.962;2023-12-04T01:24:59;14.80;;;10.52;;
49978;SDS011;35869;50.990;6.962;2023-12-04T01:29:59;14.98;;;10.48;;
49978;SDS011;35869;50.990;6.962;2023-12-04T01:35:00;21.75;;;10.98;;
49978;SDS011;35869;50.990;6.962;2023-12-04T01:45:01;13.57;;;9.93;;
49978;SDS011;35869;50.990;6.962;2023-12-04T01:50:01;13.13;;;9.90;;
49978;SDS011;35869;50.990;6.962;2023-12-04T01:55:02;12.32;;;9.63;;
49978;SDS011;35869;50.990;6.962;2023-12-04T02:00:03;15.77;;;10.63;;
49978;SDS011;35869;50.990;6.962;2023-12-04T02:05:05;13.77;;;9.85;;
49978;SDS011;35869;50.990;6.962;2023-12-04T02:10:07;13.50;;;9.38;;
49978;SDS011;35869;50.990;6.962;2023-12-04T02:15:08;13.02;;;10.10;;
49978;SDS011;35869;50.990;6.962;2023-12-04T02:20:08;13.80;;;10.37;;
49978;SDS011;35869;50.990;6.962;2023-12-04T02:25:09;14.30;;;9.75;;
49978;SDS011;35869;50.990;6.962;2023-12-04T02:30:11;14.20;;;9.93;;
49978;SDS011;35869;50.990;6.962;2023-12-04T02:35:14;16.33;;;9.50;;
49978;SDS011;35869;50.990;6.962;2023-12-04T02:40:16;12.02;;;9.38;;
49978;SDS011;35869;50.990;6.962;2023-12-04T02:45:17;16.15;;;10.77;;
49978;SDS011;35869;50.990;6.962;2023-12-04T02:50:17;12.30;;;8.63;;
49978;SDS011;35869;50.990;6.962;2023-12-04T02:55:17;10.45;;;8.50;;
49978;SDS011;35869;50.990;6.962;2023-12-04T03:00:17;13.05;;;9.48;;
49978;SDS011;35869;50.990;6.962;2023-12-04T03:05:19;14.02;;;9.98;;
49978;SDS011;35869;50.990;6.962;2023-12-04T03:10:19;11.30;;;8.40;;
49978;SDS011;35869;50.990;6.962;2023-12-04T03:15:19;10.02;;;8.50;;
49978;SDS011;35869;50.990;6.962;2023-12-04T03:20:19;12.25;;;9.43;;
49978;SDS011;35869;50.990;6.962;2023-12-04T03:25:19;13.57;;;9.13;;
49978;SDS011;35869;50.990;6.962;2023-12-04T03:30:20;11.52;;;8.63;;
49978;SDS011;35869;50.990;6.962;2023-12-04T03:35:20;10.05;;;8.38;;
49978;SDS011;35869;50.990;6.962;2023-12-04T03:40:20;13.25;;;9.07;;
49978;SDS011;35869;50.990;6.962;2023-12-04T03:45:21;13.30;;;9.37;;
49978;SDS011;35869;50.990;6.962;2023-12-04T03:50:21;11.80;;;9.23;;
49978;SDS011;35869;50.990;6.962;2023-12-04T03:55:21;12.73;;;8.30;;
49978;SDS011;35869;50.990;6.962;2023-12-04T04:00:21;12.73;;;9.55;;
49978;SDS011;35869;50.990;6.962;2023-12-04T04:05:22;10.73;;;8.47;;
49978;SDS011;35869;50.990;6.962;2023-12-04T04:10:22;15.10;;;10.38;;
49978;SDS011;35869;50.990;6.962;2023-12-04T04:15:22;15.25;;;9.55;;
49978;SDS011;35869;50.990;6.962;2023-12-04T04:20:22;12.23;;;8.98;;
49978;SDS011;35869;50.990;6.962;2023-12-04T04:25:23;13.97;;;10.53;;
49978;SDS011;35869;50.990;6.962;2023-12-04T04:30:23;14.50;;;9.93;;
49978;SDS011;35869;50.990;6.962;2023-12-04T04:35:23;13.50;;;9.48;;
49978;SDS011;35869;50.990;6.962;2023-12-04T04:40:23;14.23;;;10.45;;
49978;SDS011;35869;50.990;6.962;2023-12-04T04:45:23;11.40;;;8.48;;
49978;SDS011;35869;50.990;6.962;2023-12-04T04:50:24;11.18;;;9.77;;
49978;SDS011;35869;50.990;6.962;2023-12-04T04:55:24;12.63;;;9.60;;
49978;SDS011;35869;50.990;6.962;2023-12-04T05:00:25;16.88;;;11.15;;
49978;SDS011;35869;50.990;6.962;2023-12-04T05:05:25;14.55;;;10.68;;
49978;SDS011;35869;50.990;6.962;2023-12-04T05:10:25;14.82;;;10.25;;
49978;SDS011;35869;50.990;6.962;2023-12-04T05:15:25;16.13;;;11.10;;
49978;SDS011;35869;50.990;6.962;2023-12-04T05:20:26;14.00;;;10.45;;
49978;SDS011;35869;50.990;6.962;2023-12-04T05:25:26;15.48;;;10.52;;
49978;SDS011;35869;50.990;6.962;2023-12-04T05:30:26;14.18;;;10.93;;
49978;SDS011;35869;50.990;6.962;2023-12-04T05:35:26;14.82;;;11.20;;
49978;SDS011;35869;50.990;6.962;2023-12-04T05:40:27;17.08;;;11.05;;
49978;SDS011;35869;50.990;6.962;2023-12-04T05:45:27;17.25;;;11.43;;
49978;SDS011;35869;50.990;6.962;2023-12-04T05:50:27;17.52;;;11.82;;
49978;SDS011;35869;50.990;6.962;2023-12-04T05:55:27;15.05;;;10.70;;
49978;SDS011;35869;50.990;6.962;2023-12-04T06:00:28;16.05;;;12.27;;
49978;SDS011;35869;50.990;6.962;2023-12-04T06:05:28;17.30;;;13.20;;
49978;SDS011;35869;50.990;6.962;2023-12-04T06:10:28;17.15;;;12.15;;
49978;SDS011;35869;50.990;6.962;2023-12-04T06:15:28;16.50;;;11.35;;
49978;SDS011;35869;50.990;6.962;2023-12-04T06:20:30;16.17;;;11.27;;
49978;SDS011;35869;50.990;6.962;2023-12-04T06:25:30;17.08;;;12.40;;
49978;SDS011;35869;50.990;6.962;2023-12-04T06:30:30;16.45;;;12.82;;
49978;SDS011;35869;50.990;6.962;2023-12-04T06:35:31;18.00;;;11.77;;
49978;SDS011;35869;50.990;6.962;2023-12-04T06:40:31;16.53;;;12.47;;
49978;SDS011;35869;50.990;6.962;2023-12-04T06:45:32;18.38;;;13.20;;
49978;SDS011;35869;50.990;6.962;2023-12-04T06:50:33;15.73;;;11.50;;
49978;SDS011;35869;50.990;6.962;2023-12-04T07:00:34;15.93;;;10.98;;
49978;SDS011;35869;50.990;6.962;2023-12-04T07:05:35;14.77;;;11.85;;
49978;SDS011;35869;50.990;6.962;2023-12-04T07:10:35;15.47;;;10.73;;
49978;SDS011;35869;50.990;6.962;2023-12-04T07:15:35;15.03;;;10.73;;
49978;SDS011;35869;50.990;6.962;2023-12-04T07:20:36;16.55;;;10.85;;
49978;SDS011;35869;50.990;6.962;2023-12-04T07:25:37;14.85;;;10.73;;
49978;SDS011;35869;50.990;6.962;2023-12-04T07:30:38;14.93;;;11.02;;
49978;SDS011;35869;50.990;6.962;2023-12-04T07:35:38;14.43;;;10.68;;
49978;SDS011;35869;50.990;6.962;2023-12-04T07:40:38;11.23;;;9.37;;
49978;SDS011;35869;50.990;6.962;2023-12-04T07:45:39;13.95;;;9.48;;
49978;SDS011;35869;50.990;6.962;2023-12-04T07:50:39;12.98;;;9.07;;
49978;SDS011;35869;50.990;6.962;2023-12-04T07:55:40;10.77;;;8.18;;
49978;SDS011;35869;50.990;6.962;2023-12-04T08:00:40;10.98;;;7.95;;
49978;SDS011;35869;50.990;6.962;2023-12-04T08:05:40;13.27;;;8.85;;
49978;SDS011;35869;50.990;6.962;2023-12-04T08:10:40;10.77;;;8.95;;
49978;SDS011;35869;50.990;6.962;2023-12-04T08:15:41;10.98;;;8.45;;
49978;SDS011;35869;50.990;6.962;2023-12-04T08:20:41;11.80;;;8.23;;
49978;SDS011;35869;50.990;6.962;2023-12-04T08:25:41;11.75;;;8.45;;
49978;SDS011;35869;50.990;6.962;2023-12-04T08:30:41;11.20;;;8.68;;
49978;SDS011;35869;50.990;6.962;2023-12-04T08:35:42;11.68;;;9.13;;
49978;SDS011;35869;50.990;6.962;2023-12-04T08:40:42;12.18;;;8.65;;
49978;SDS011;35869;50.990;6.962;2023-12-04T08:45:42;10.30;;;8.05;;
49978;SDS011;35869;50.990;6.962;2023-12-04T08:50:42;10.50;;;8.13;;
49978;SDS011;35869;50.990;6.962;2023-12-04T08:55:43;11.27;;;7.93;;
49978;SDS011;35869;50.990;6.962;2023-12-04T09:00:43;10.02;;;7.72;;
49978;SDS011;35869;50.990;6.962;2023-12-04T09:05:43;13.10;;;8.93;;
49978;SDS011;35869;50.990;6.962;2023-12-04T09:10:43;10.93;;;7.85;;
49978;SDS011;35869;50.990;6.962;2023-12-04T09:15:44;12.70;;;8.23;;
49978;SDS011;35869;50.990;6.962;2023-12-04T09:20:44;12.03;;;7.73;;
49978;SDS011;35869;50.990;6.962;2023-12-04T09:25:44;11.70;;;7.43;;
49978;SDS011;35869;50.990;6.962;2023-12-04T09:30:45;11.13;;;7.55;;
49978;SDS011;35869;50.990;6.962;2023-12-04T09:35:45;8.82;;;7.25;;
49978;SDS011;35869;50.990;6.962;2023-12-04T09:40:45;11.23;;;8.25;;
49978;SDS011;35869;50.990;6.962;2023-12-04T09:45:45;12.00;;;8.20;;
49978;SDS011;35869;50.990;6.962;2023-12-04T09:50:46;12.97;;;9.10;;
49978;SDS011;35869;50.990;6.962;2023-12-04T09:55:48;13.60;;;8.85;;
49978;SDS011;35869;50.990;6.962;2023-12-04T10:00:49;12.68;;;10.00;;
49978;SDS011;35869;50.990;6.962;2023-12-04T10:05:49;10.07;;;7.95;;
49978;SDS011;35869;50.990;6.962;2023-12-04T10:10:50;15.00;;;8.07;;
49978;SDS011;35869;50.990;6.962;2023-12-04T10:15:50;10.93;;;8.18;;
49978;SDS011;35869;50.990;6.962;2023-12-04T10:20:51;11.93;;;7.65;;
49978;SDS011;35869;50.990;6.962;2023-12-04T10:25:54;11.88;;;8.05;;
49978;SDS011;35869;50.990;6.962;2023-12-04T10:30:55;42.50;;;12.13;;
49978;SDS011;35869;50.990;6.962;2023-12-04T10:35:55;9.87;;;7.80;;
49978;SDS011;35869;50.990;6.962;2023-12-04T10:40:55;12.90;;;7.85;;
49978;SDS011;35869;50.990;6.962;2023-12-04T10:45:55;9.93;;;7.20;;
49978;SDS011;35869;50.990;6.962;2023-12-04T10:50:56;10.68;;;7.60;;
49978;SDS011;35869;50.990;6.962;2023-12-04T10:55:56;10.83;;;7.37;;
49978;SDS011;35869;50.990;6.962;2023-12-04T11:01:00;15.75;;;8.88;;
49978;SDS011;35869;50.990;6.962;2023-12-04T11:06:01;12.30;;;9.15;;
49978;SDS011;35869;50.990;6.962;2023-12-04T11:11:03;11.65;;;7.63;;
49978;SDS011;35869;50.990;6.962;2023-12-04T11:21:44;11.18;;;8.88;;
49978;SDS011;35869;50.990;6.962;2023-12-04T11:26:45;12.02;;;8.73;;
49978;SDS011;35869;50.990;6.962;2023-12-04T11:31:46;11.23;;;8.60;;
49978;SDS011;35869;50.990;6.962;2023-12-04T11:36:47;14.63;;;10.48;;
49978;SDS011;35869;50.990;6.962;2023-12-04T11:41:47;15.33;;;9.97;;
49978;SDS011;35869;50.990;6.962;2023-12-04T11:46:56;17.20;;;11.32;;
49978;SDS011;35869;50.990;6.962;2023-12-04T11:52:03;21.35;;;13.35;;
49978;SDS011;35869;50.990;6.962;2023-12-04T12:02:10;16.77;;;12.27;;
49978;SDS011;35869;50.990;6.962;2023-12-04T12:07:11;19.38;;;12.38;;
49978;SDS011;35869;50.990;6.962;2023-12-04T12:12:11;20.70;;;14.50;;
49978;SDS011;35869;50.990;6.962;2023-12-04T12:17:13;20.65;;;13.13;;
49978;SDS011;35869;50.990;6.962;2023-12-04T12:22:13;30.98;;;14.95;;
49978;SDS011;35869;50.990;6.962;2023-12-04T12:27:14;18.87;;;13.00;;
49978;SDS011;35869;50.990;6.962;2023-12-04T12:32:14;17.05;;;11.77;;
49978;SDS011;35869;50.990;6.962;2023-12-04T12:37:14;18.90;;;14.52;;
49978;SDS011;35869;50.990;6.962;2023-12-04T12:42:21;18.50;;;12.30;;
49978;SDS011;35869;50.990;6.962;2023-12-04T12:47:23;19.48;;;13.30;;
49978;SDS011;35869;50.990;6.962;2023-12-04T12:52:23;18.40;;;12.60;;
49978;SDS011;35869;50.990;6.962;2023-12-04T12:57:25;18.08;;;13.18;;
49978;SDS011;35869;50.990;6.962;2023-12-04T13:02:26;18.23;;;13.60;;
49978;SDS011;35869;50.990;6.962;2023-12-04T13:07:26;23.95;;;16.65;;
49978;SDS011;35869;50.990;6.962;2023-12-04T13:12:26;18.17;;;12.52;;
49978;SDS011;35869;50.990;6.962;2023-12-04T13:17:26;16.23;;;11.40;;
49978;SDS011;35869;50.990;6.962;2023-12-04T13:22:27;15.63;;;12.25;;
49978;SDS011;35869;50.990;6.962;2023-12-04T13:27:27;17.87;;;11.67;;
49978;SDS011;35869;50.990;6.962;2023-12-04T13:32:27;13.45;;;10.75;;
49978;SDS011;35869;50.990;6.962;2023-12-04T13:37:27;14.88;;;11.65;;
49978;SDS011;35869;50.990;6.962;2023-12-04T13:42:27;20.42;;;11.75;;
49978;SDS011;35869;50.990;6.962;2023-12-04T13:47:28;15.10;;;11.07;;
49978;SDS011;35869;50.990;6.962;2023-12-04T13:52:28;17.35;;;11.38;;
49978;SDS011;35869;50.990;6.962;2023-12-04T13:57:28;14.32;;;10.10;;
49978;SDS011;35869;50.990;6.962;2023-12-04T14:02:28;13.65;;;11.05;;
49978;SDS011;35869;50.990;6.962;2023-12-04T14:07:28;12.05;;;9.05;;
49978;SDS011;35869;50.990;6.962;2023-12-04T14:12:29;14.02;;;9.80;;
49978;SDS011;35869;50.990;6.962;2023-12-04T14:17:29;12.38;;;8.50;;
49978;SDS011;35869;50.990;6.962;2023-12-04T14:22:29;11.40;;;8.65;;
49978;SDS011;35869;50.990;6.962;2023-12-04T14:27:29;12.50;;;9.63;;
49978;SDS011;35869;50.990;6.962;2023-12-04T14:32:30;12.05;;;9.27;;
49978;SDS011;35869;50.990;6.962;2023-12-04T14:37:30;12.45;;;9.43;;
49978;SDS011;35869;50.990;6.962;2023-12-04T14:42:30;10.82;;;9.48;;
49978;SDS011;35869;50.990;6.962;2023-12-04T14:47:30;11.60;;;8.48;;
49978;SDS011;35869;50.990;6.962;2023-12-04T14:52:30;10.38;;;7.57;;
49978;SDS011;35869;50.990;6.962;2023-12-04T14:57:31;13.13;;;9.23;;
49978;SDS011;35869;50.990;6.962;2023-12-04T15:02:32;11.45;;;9.15;;
49978;SDS011;35869;50.990;6.962;2023-12-04T15:07:33;10.18;;;8.30;;
49978;SDS011;35869;50.990;6.962;2023-12-04T15:12:33;9.52;;;7.85;;
49978;SDS011;35869;50.990;6.962;2023-12-04T15:17:34;9.57;;;7.70;;
49978;SDS011;35869;50.990;6.962;2023-12-04T15:22:34;10.00;;;7.88;;
49978;SDS011;35869;50.990;6.962;2023-12-04T15:27:34;10.27;;;8.52;;
49978;SDS011;35869;50.990;6.962;2023-12-04T15:32:34;12.75;;;9.32;;
49978;SDS011;35869;50.990;6.962;2023-12-04T15:37:34;12.68;;;10.15;;
49978;SDS011;35869;50.990;6.962;2023-12-04T15:42:35;12.93;;;11.17;;
49978;SDS011;35869;50.990;6.962;2023-12-04T15:47:35;13.07;;;10.23;;
49978;SDS011;35869;50.990;6.962;2023-12-04T15:52:35;15.80;;;11.20;;
49978;SDS011;35869;50.990;6.962;2023-12-04T15:57:42;13.48;;;11.13;;
49978;SDS011;35869;50.990;6.962;2023-12-04T16:02:42;13.15;;;11.65;;
49978;SDS011;35869;50.990;6.962;2023-12-04T16:07:43;16.53;;;11.27;;
49978;SDS011;35869;50.990;6.962;2023-12-04T16:12:43;14.10;;;10.60;;
49978;SDS011;35869;50.990;6.962;2023-12-04T16:17:43;14.60;;;12.13;;
49978;SDS011;35869;50.990;6.962;2023-12-04T16:22:43;13.85;;;11.50;;
49978;SDS011;35869;50.990;6.962;2023-12-04T16:27:44;14.77;;;10.40;;
49978;SDS011;35869;50.990;6.962;2023-12-04T16:32:45;12.65;;;10.35;;
49978;SDS011;35869;50.990;6.962;2023-12-04T16:42:46;11.85;;;9.30;;
49978;SDS011;35869;50.990;6.962;2023-12-04T16:47:48;11.50;;;9.40;;
49978;SDS011;35869;50.990;6.962;2023-12-04T16:52:49;12.02;;;10.80;;
49978;SDS011;35869;50.990;6.962;2023-12-04T16:57:49;15.87;;;12.17;;
49978;SDS011;35869;50.990;6.962;2023-12-04T17:02:49;13.60;;;10.95;;
49978;SDS011;35869;50.990;6.962;2023-12-04T17:07:50;12.27;;;10.10;;
49978;SDS011;35869;50.990;6.962;2023-12-04T17:12:50;13.20;;;10.45;;
49978;SDS011;35869;50.990;6.962;2023-12-04T17:17:50;12.35;;;10.45;;
49978;SDS011;35869;50.990;6.962;2023-12-04T17:22:50;15.75;;;11.60;;
49978;SDS011;35869;50.990;6.962;2023-12-04T17:27:51;15.25;;;10.98;;
49978;SDS011;35869;50.990;6.962;2023-12-04T17:32:51;15.40;;;11.38;;
49978;SDS011;35869;50.990;6.962;2023-12-04T17:37:52;15.32;;;12.15;;
49978;SDS011;35869;50.990;6.962;2023-12-04T17:42:52;14.57;;;10.85;;
49978;SDS011;35869;50.990;6.962;2023-12-04T17:47:52;17.90;;;14.15;;
49978;SDS011;35869;50.990;6.962;2023-12-04T17:52:52;18.90;;;14.82;;
49978;SDS011;35869;50.990;6.962;2023-12-04T17:57:52;19.10;;;15.38;;
49978;SDS011;35869;50.990;6.962;2023-12-04T18:02:53;19.63;;;15.40;;
49978;SDS011;35869;50.990;6.962;2023-12-04T18:07:53;25.30;;;21.13;;
49978;SDS011;35869;50.990;6.962;2023-12-04T18:12:53;17.90;;;14.33;;
49978;SDS011;35869;50.990;6.962;2023-12-04T18:17:53;22.42;;;16.98;;
49978;SDS011;35869;50.990;6.962;2023-12-04T18:22:55;22.83;;;17.88;;
49978;SDS011;35869;50.990;6.962;2023-12-04T18:32:55;21.77;;;17.27;;
49978;SDS011;35869;50.990;6.962;2023-12-04T18:38:01;20.13;;;16.37;;
49978;SDS011;35869;50.990;6.962;2023-12-04T18:43:06;27.10;;;20.10;;
49978;SDS011;35869;50.990;6.962;2023-12-04T18:48:07;29.42;;;22.45;;
49978;SDS011;35869;50.990;6.962;2023-12-04T18:53:08;27.35;;;21.08;;
49978;SDS011;35869;50.990;6.962;2023-12-04T18:58:08;27.77;;;22.03;;
49978;SDS011;35869;50.990;6.962;2023-12-04T19:03:09;25.95;;;20.52;;
49978;SDS011;35869;50.990;6.962;2023-12-04T19:08:09;26.60;;;21.98;;
49978;SDS011;35869;50.990;6.962;2023-12-04T19:13:09;24.77;;;19.23;;
49978;SDS011;35869;50.990;6.962;2023-12-04T19:18:10;25.58;;;20.58;;
49978;SDS011;35869;50.990;6.962;2023-12-04T19:23:10;26.83;;;20.33;;
49978;SDS011;35869;50.990;6.962;2023-12-04T19:28:10;35.95;;;26.40;;
49978;SDS011;35869;50.990;6.962;2023-12-04T19:33:10;25.80;;;20.33;;
49978;SDS011;35869;50.990;6.962;2023-12-04T19:38:11;24.50;;;17.58;;
49978;SDS011;35869;50.990;6.962;2023-12-04T19:43:12;24.83;;;19.95;;
49978;SDS011;35869;50.990;6.962;2023-12-04T19:48:13;23.38;;;18.67;;
49978;SDS011;35869;50.990;6.962;2023-12-04T19:53:14;25.83;;;21.23;;
49978;SDS011;35869;50.990;6.962;2023-12-04T19:58:14;30.15;;;22.50;;
49978;SDS011;35869;50.990;6.962;2023-12-04T20:03:14;34.00;;;26.17;;
49978;SDS011;35869;50.990;6.962;2023-12-04T20:08:14;26.17;;;21.00;;
49978;SDS011;35869;50.990;6.962;2023-12-04T20:13:14;22.48;;;18.50;;
49978;SDS011;35869;50.990;6.962;2023-12-04T20:18:15;24.40;;;20.48;;
49978;SDS011;35869;50.990;6.962;2023-12-04T20:23:15;33.57;;;26.10;;
49978;SDS011;35869;50.990;6.962;2023-12-04T20:28:15;25.65;;;20.55;;
49978;SDS011;35869;50.990;6.962;2023-12-04T20:33:15;22.75;;;18.23;;
49978;SDS011;35869;50.990;6.962;2023-12-04T20:38:16;25.05;;;18.20;;
49978;SDS011;35869;50.990;6.962;2023-12-04T20:43:16;31.77;;;22.47;;
49978;SDS011;35869;50.990;6.962;2023-12-04T20:48:17;28.13;;;23.15;;
49978;SDS011;35869;50.990;6.962;2023-12-04T20:53:17;29.08;;;22.27;;
49978;SDS011;35869;50.990;6.962;2023-12-04T20:58:17;21.30;;;18.48;;
49978;SDS011;35869;50.990;6.962;2023-12-04T21:03:18;26.25;;;19.63;;
49978;SDS011;35869;50.990;6.962;2023-12-04T21:08:18;27.55;;;21.55;;
49978;SDS011;35869;50.990;6.962;2023-12-04T21:13:18;28.45;;;22.55;;
49978;SDS011;35869;50.990;6.962;2023-12-04T21:18:18;25.23;;;20.88;;
49978;SDS011;35869;50.990;6.962;2023-12-04T21:23:19;36.08;;;26.23;;
49978;SDS011;35869;50.990;6.962;2023-12-04T21:28:19;27.60;;;21.13;;
49978;SDS011;35869;50.990;6.962;2023-12-04T21:33:19;30.75;;;22.15;;
49978;SDS011;35869;50.990;6.962;2023-12-04T21:38:19;35.30;;;26.08;;
49978;SDS011;35869;50.990;6.962;2023-12-04T21:43:19;37.30;;;26.55;;
49978;SDS011;35869;50.990;6.962;2023-12-04T21:48:20;32.28;;;25.08;;
49978;SDS011;35869;50.990;6.962;2023-12-04T21:53:20;29.70;;;24.08;;
49978;SDS011;35869;50.990;6.962;2023-12-04T21:58:20;38.28;;;25.35;;
49978;SDS011;35869;50.990;6.962;2023-12-04T22:03:20;25.75;;;19.63;;
49978;SDS011;35869;50.990;6.962;2023-12-04T22:08:20;23.90;;;19.17;;
49978;SDS011;35869;50.990;6.962;2023-12-04T22:13:21;33.33;;;24.20;;
49978;SDS011;35869;50.990;6.962;2023-12-04T22:18:21;32.27;;;23.43;;
49978;SDS011;35869;50.990;6.962;2023-12-04T22:23:22;26.27;;;20.77;;
49978;SDS011;35869;50.990;6.962;2023-12-04T22:28:22;32.33;;;23.08;;
49978;SDS011;35869;50.990;6.962;2023-12-04T22:33:22;29.90;;;22.25;;
49978;SDS011;35869;50.990;6.962;2023-12-04T22:38:22;26.58;;;20.25;;
49978;SDS011;35869;50.990;6.962;2023-12-04T22:43:22;33.85;;;25.45;;
49978;SDS011;35869;50.990;6.962;2023-12-04T22:48:23;31.02;;;23.70;;
49978;SDS011;35869;50.990;6.962;2023-12-04T22:53:23;33.27;;;25.17;;
49978;SDS011;35869;50.990;6.962;2023-12-04T22:58:23;34.97;;;27.42;;
49978;SDS011;35869;50.990;6.962;2023-12-04T23:03:24;31.77;;;24.52;;
49978;SDS011;35869;50.990;6.962;2023-12-04T23:08:24;33.75;;;24.98;;
49978;SDS011;35869;50.990;6.962;2023-12-04T23:13:24;40.40;;;26.30;;
49978;SDS011;35869;50.990;6.962;2023-12-04T23:18:24;38.95;;;26.50;;
49978;SDS011;35869;50.990;6.962;2023-12-04T23:23:24;27.52;;;22.60;;
49978;SDS011;35869;50.990;6.962;2023-12-04T23:28:25;40.65;;;28.27;;
49978;SDS011;35869;50.990;6.962;2023-12-04T23:33:25;47.50;;;32.20;;
49978;SDS011;35869;50.990;6.962;2023-12-04T23:38:25;35.17;;;24.05;;
49978;SDS011;35869;50.990;6.962;2023-12-04T23:43:25;35.72;;;25.38;;
49978;SDS011;35869;50.990;6.962;2023-12-04T23:48:25;36.55;;;26.52;;
49978;SDS011;35869;50.990;6.962;2023-12-04T23:53:26;33.50;;;24.70;;
49978;SDS011;35869;50.990;6.962;2023-12-04T23:58:26;35.83;;;26.50;;
